Time;durP1;ratioP1;P1;durP2;ratioP2;P2;SDS_P1;SDS_P2;PMS_P1;PMS_P2;Temp;Humidity;BMP_temperature;BMP_pressure;BME280_temperature;BME280_humidity;BME280_pressure;Samples;Min_cycle;Max_cycle;Signal;HPM_P1;HPM_P2
2023/12/31 00:00:05;;;;;;;12.85;8.02;;;4.90;99.90;;;;;;5073962;28;20037;-92
2023/12/31 00:02:30;;;;;;;;;;;4.90;99.90;;;;;;5057505;28;20039;-91
2023/12/31 00:04:56;;;;;;;12.27;7.90;;;4.90;99.90;;;;;;5075005;28;19904;-91
2023/12/31 00:07:21;;;;;;;10.63;7.80;;;4.90;99.90;;;;;;5068889;28;20024;-91
2023/12/31 00:09:47;;;;;;;13.27;10.65;;;4.80;99.90;;;;;;5076216;28;20461;-92
2023/12/31 00:12:14;;;;;;;14.30;8.20;;;4.70;99.90;;;;;;5057591;28;20053;-92
2023/12/31 00:14:39;;;;;;;10.68;7.03;;;4.60;99.90;;;;;;5077311;28;20158;-91
2023/12/31 00:17:05;;;;;;;10.88;6.43;;;4.40;99.90;;;;;;5076391;28;20036;-93
2023/12/31 00:19:31;;;;;;;14.85;7.82;;;4.50;99.90;;;;;;5075853;28;20032;-92
2023/12/31 00:21:56;;;;;;;16.50;8.52;;;4.40;99.90;;;;;;5074574;28;20029;-90
2023/12/31 00:24:22;;;;;;;20.45;10.25;;;4.40;99.90;;;;;;5075347;28;20100;-90
2023/12/31 00:26:48;;;;;;;20.33;9.48;;;4.40;99.90;;;;;;5077662;28;20493;-91
2023/12/31 00:29:13;;;;;;;14.13;7.63;;;4.30;99.90;;;;;;5079672;28;20048;-92
2023/12/31 00:31:39;;;;;;;12.35;6.35;;;4.20;99.90;;;;;;5066481;28;20024;-92
2023/12/31 00:34:05;;;;;;;8.90;5.47;;;4.20;99.90;;;;;;5077072;28;20104;-91
2023/12/31 00:36:31;;;;;;;14.30;7.25;;;4.20;99.90;;;;;;5085167;28;20020;-92
2023/12/31 00:38:56;;;;;;;7.30;5.95;;;4.20;99.90;;;;;;5075673;28;20106;-92
2023/12/31 00:41:22;;;;;;;7.38;5.88;;;4.20;99.90;;;;;;5074707;28;20052;-91
2023/12/31 00:43:48;;;;;;;10.20;6.60;;;4.10;99.90;;;;;;5072773;28;20028;-91
2023/12/31 00:46:13;;;;;;;10.20;6.55;;;4.20;99.90;;;;;;5077674;28;20029;-91
2023/12/31 00:48:39;;;;;;;8.68;6.70;;;4.20;99.90;;;;;;5077778;28;20021;-91
2023/12/31 00:51:05;;;;;;;8.88;6.32;;;4.20;99.90;;;;;;5075386;28;20025;-91
2023/12/31 00:53:32;;;;;;;13.02;5.57;;;4.00;99.90;;;;;;5066931;28;20545;-92
2023/12/31 00:55:58;;;;;;;10.15;5.88;;;4.00;99.90;;;;;;5079368;28;20535;-91
2023/12/31 00:58:23;;;;;;;8.02;7.22;;;3.90;99.90;;;;;;5078859;28;20029;-91
2023/12/31 01:00:49;;;;;;;8.15;6.28;;;3.80;99.90;;;;;;5077989;28;20531;-91
2023/12/31 01:03:15;;;;;;;9.23;6.82;;;3.80;99.90;;;;;;5061805;28;20021;-91
2023/12/31 01:05:41;;;;;;;9.95;6.00;;;3.80;99.90;;;;;;5075228;28;20025;-91
2023/12/31 01:08:08;;;;;;;7.47;5.78;;;3.90;99.90;;;;;;5079527;28;20044;-91
2023/12/31 01:10:34;;;;;;;9.70;6.65;;;3.80;99.90;;;;;;5078904;28;20052;-91
2023/12/31 01:12:59;;;;;;;8.65;5.53;;;3.70;99.90;;;;;;5068309;28;20024;-92
2023/12/31 01:15:25;;;;;;;9.23;6.20;;;3.70;99.90;;;;;;5080599;28;20394;-91
2023/12/31 01:17:51;;;;;;;7.22;5.28;;;3.80;99.90;;;;;;5078731;28;20028;-90
2023/12/31 01:20:16;;;;;;;9.77;5.30;;;3.70;99.90;;;;;;5078024;28;20058;-91
2023/12/31 01:22:42;;;;;;;9.15;5.05;;;3.70;99.90;;;;;;5079505;28;20024;-91
2023/12/31 01:25:08;;;;;;;8.48;5.22;;;3.70;99.90;;;;;;5080421;28;20036;-91
2023/12/31 01:27:34;;;;;;;7.43;5.68;;;3.70;99.90;;;;;;5079964;28;20044;-92
2023/12/31 01:30:00;;;;;;;8.30;5.40;;;3.50;99.90;;;;;;5079035;28;20025;-91
2023/12/31 01:32:25;;;;;;;6.97;5.95;;;3.50;99.90;;;;;;5089385;28;20109;-91
2023/12/31 01:34:55;;;;;;;8.40;5.20;;;3.50;99.90;;;;;;5061928;28;20020;-91
2023/12/31 01:37:20;;;;;;;7.05;5.32;;;3.40;99.90;;;;;;5079542;28;20057;-92
2023/12/31 01:39:46;;;;;;;10.70;6.05;;;3.40;99.90;;;;;;5078486;28;20024;-91
2023/12/31 01:42:12;;;;;;;7.65;5.25;;;3.40;99.90;;;;;;5080104;28;20024;-92
2023/12/31 01:44:38;;;;;;;8.63;6.05;;;3.40;99.90;;;;;;5060963;28;20028;-91
2023/12/31 01:47:04;;;;;;;8.57;6.15;;;3.40;99.90;;;;;;5077084;28;20547;-91
2023/12/31 01:49:32;;;;;;;9.05;6.00;;;3.40;99.90;;;;;;5077077;28;20025;-92
2023/12/31 01:51:58;;;;;;;8.43;5.78;;;3.30;99.90;;;;;;5078179;28;20023;-92
2023/12/31 01:54:24;;;;;;;8.52;5.68;;;3.30;99.90;;;;;;5076738;28;20052;-91
2023/12/31 01:56:51;;;;;;;8.35;5.60;;;3.30;99.90;;;;;;5073319;28;20044;-91
2023/12/31 01:59:17;;;;;;;9.32;6.35;;;3.30;99.90;;;;;;5064493;28;20053;-93
2023/12/31 02:01:45;;;;;;;7.10;6.40;;;3.30;99.90;;;;;;5079095;28;20390;-91
2023/12/31 02:04:11;;;;;;;10.00;5.68;;;3.30;99.90;;;;;;5084102;28;20036;-91
2023/12/31 02:06:38;;;;;;;7.40;5.70;;;3.30;99.90;;;;;;5076622;28;20216;-91
2023/12/31 02:09:06;;;;;;;7.47;5.43;;;3.30;99.90;;;;;;5080073;28;20046;-91
2023/12/31 02:11:32;;;;;;;8.85;6.07;;;3.10;99.90;;;;;;5079652;28;20501;-91
2023/12/31 02:13:58;;;;;;;9.48;6.68;;;3.10;99.90;;;;;;5079035;28;20028;-91
2023/12/31 02:16:25;;;;;;;12.75;6.72;;;3.10;99.90;;;;;;5071716;28;20051;-92
2023/12/31 02:18:50;;;;;;;9.23;7.95;;;3.10;99.90;;;;;;5060331;28;20024;-92
2023/12/31 02:21:16;;;;;;;9.77;6.35;;;3.10;99.90;;;;;;5078706;28;20113;-91
2023/12/31 02:23:43;;;;;;;7.68;6.20;;;3.10;99.90;;;;;;5082193;28;20116;-92
2023/12/31 02:26:11;;;;;;;9.88;6.38;;;3.10;99.90;;;;;;5079297;28;20024;-90
2023/12/31 02:28:37;;;;;;;8.88;6.38;;;3.20;99.90;;;;;;5060995;28;20024;-92
2023/12/31 02:31:04;;;;;;;7.63;6.03;;;3.30;99.90;;;;;;5083352;28;20595;-91
2023/12/31 02:33:30;;;;;;;10.35;5.93;;;3.40;99.90;;;;;;5069090;28;20104;-92
2023/12/31 02:35:56;;;;;;;8.68;7.30;;;3.50;99.90;;;;;;5059950;28;20031;-91
2023/12/31 02:38:21;;;;;;;10.95;6.95;;;3.50;99.90;;;;;;5077897;28;20021;-90
2023/12/31 02:40:47;;;;;;;9.23;6.80;;;3.50;99.90;;;;;;5066801;28;20071;-92
2023/12/31 02:43:13;;;;;;;7.13;5.82;;;3.50;99.90;;;;;;5076890;28;20031;-91
2023/12/31 02:45:39;;;;;;;10.55;9.45;;;3.60;99.90;;;;;;5074442;28;20464;-91
2023/12/31 02:48:05;;;;;;;9.60;5.45;;;3.60;99.90;;;;;;5074759;28;20554;-91
2023/12/31 02:50:31;;;;;;;12.25;6.20;;;3.60;99.90;;;;;;5075345;28;20033;-91
2023/12/31 02:52:57;;;;;;;8.32;6.38;;;3.70;99.90;;;;;;5076668;28;20024;-91
2023/12/31 02:55:22;;;;;;;8.23;5.88;;;3.70;99.90;;;;;;5076424;28;20017;-92
2023/12/31 02:57:48;;;;;;;7.85;5.47;;;3.70;99.90;;;;;;5059330;28;20120;-91
2023/12/31 03:00:14;;;;;;;9.65;6.80;;;3.70;99.90;;;;;;5058018;28;20024;-91
2023/12/31 03:02:40;;;;;;;7.53;5.68;;;3.70;99.90;;;;;;5082024;28;20640;-92
2023/12/31 03:05:07;;;;;;;8.52;5.82;;;3.80;99.90;;;;;;5079020;28;20036;-89
2023/12/31 03:07:34;;;;;;;11.27;7.80;;;3.80;99.90;;;;;;5070043;28;20021;-91
2023/12/31 03:10:00;;;;;;;9.77;7.13;;;3.70;99.90;;;;;;5076986;28;20020;-91
2023/12/31 03:12:25;;;;;;;11.77;7.10;;;3.70;99.90;;;;;;5071632;28;20031;-91
2023/12/31 03:14:51;;;;;;;7.45;4.93;;;3.70;99.90;;;;;;5076940;28;20081;-92
2023/12/31 03:17:17;;;;;;;8.02;6.55;;;3.70;99.90;;;;;;5077538;28;20031;-91
2023/12/31 03:19:42;;;;;;;10.80;5.65;;;3.70;99.90;;;;;;5077265;28;20039;-91
2023/12/31 03:22:08;;;;;;;8.25;5.97;;;3.70;99.90;;;;;;5078200;28;20097;-90
2023/12/31 03:24:34;;;;;;;8.57;5.60;;;3.60;99.90;;;;;;5084808;28;20441;-91
2023/12/31 03:26:59;;;;;;;9.25;6.30;;;3.60;99.90;;;;;;5077023;28;20406;-91
2023/12/31 03:29:26;;;;;;;8.00;5.53;;;3.60;99.90;;;;;;5088232;28;20028;-91
2023/12/31 03:31:52;;;;;;;11.05;6.40;;;3.60;99.90;;;;;;5063758;28;20021;-91
2023/12/31 03:34:18;;;;;;;7.55;4.95;;;3.60;99.90;;;;;;5057897;28;20024;-90
2023/12/31 03:36:44;;;;;;;8.27;6.53;;;3.70;99.90;;;;;;5077060;28;20429;-91
2023/12/31 03:39:09;;;;;;;8.00;5.53;;;3.70;99.90;;;;;;5076912;28;20094;-92
2023/12/31 03:41:35;;;;;;;10.90;6.30;;;3.70;99.90;;;;;;5078726;28;20525;-91
2023/12/31 03:44:01;;;;;;;8.18;5.80;;;3.70;99.90;;;;;;5075933;28;20553;-91
2023/12/31 03:46:27;;;;;;;7.57;6.05;;;3.80;99.90;;;;;;5057562;28;20059;-92
2023/12/31 03:48:53;;;;;;;7.75;6.80;;;3.80;99.90;;;;;;5066598;28;20024;-92
2023/12/31 03:51:18;;;;;;;8.32;5.63;;;3.80;99.90;;;;;;5074722;28;20024;-91
2023/12/31 03:53:44;;;;;;;9.95;6.00;;;3.80;99.90;;;;;;5076551;28;20028;-92
2023/12/31 03:56:10;;;;;;;10.30;6.07;;;3.90;99.90;;;;;;5057691;28;20051;-92
2023/12/31 03:58:36;;;;;;;8.68;6.28;;;3.90;99.90;;;;;;5076073;28;20020;-90
2023/12/31 04:01:01;;;;;;;10.55;8.13;;;3.90;99.90;;;;;;5076133;28;20051;-92
2023/12/31 04:03:27;;;;;;;8.25;5.95;;;3.90;99.90;;;;;;5074663;28;20032;-91
2023/12/31 04:05:53;;;;;;;7.57;5.07;;;3.90;99.90;;;;;;5065886;28;20025;-91
2023/12/31 04:08:19;;;;;;;8.70;6.22;;;4.00;99.90;;;;;;5076004;28;20024;-91
2023/12/31 04:10:44;;;;;;;7.53;5.30;;;3.90;99.90;;;;;;5081560;28;20040;-91
2023/12/31 04:13:10;;;;;;;7.07;5.10;;;3.90;99.90;;;;;;5077777;28;20016;-91
2023/12/31 04:15:36;;;;;;;8.35;5.70;;;3.90;99.90;;;;;;5076832;28;20036;-91
2023/12/31 04:18:02;;;;;;;8.48;6.50;;;4.00;99.90;;;;;;5077095;28;20027;-91
2023/12/31 04:20:28;;;;;;;8.25;5.18;;;4.00;99.90;;;;;;5077102;28;20043;-90
2023/12/31 04:22:54;;;;;;;8.32;4.88;;;3.90;99.90;;;;;;5076197;28;20479;-91
2023/12/31 04:25:19;;;;;;;7.47;5.38;;;4.00;99.90;;;;;;5060687;28;20031;-92
2023/12/31 04:27:48;;;;;;;6.82;5.03;;;4.00;99.90;;;;;;5074201;28;20042;-92
2023/12/31 04:30:13;;;;;;;6.95;5.40;;;4.00;99.90;;;;;;5084293;28;20020;-91
2023/12/31 04:32:39;;;;;;;6.43;4.55;;;4.00;99.90;;;;;;5077516;28;20113;-91
2023/12/31 04:35:06;;;;;;;8.40;6.95;;;4.10;99.90;;;;;;5069322;28;20094;-91
2023/12/31 04:37:32;;;;;;;8.15;7.00;;;4.10;99.90;;;;;;5074495;28;20434;-92
2023/12/31 04:39:58;;;;;;;7.40;6.10;;;4.10;99.90;;;;;;5074078;28;20031;-91
2023/12/31 04:42:24;;;;;;;8.25;6.50;;;4.10;99.90;;;;;;5075242;28;20032;-92
2023/12/31 04:44:49;;;;;;;7.45;5.93;;;4.10;99.90;;;;;;5056936;28;20035;-92
2023/12/31 04:47:15;;;;;;;10.13;6.13;;;4.10;99.90;;;;;;5070439;28;20101;-92
2023/12/31 04:49:41;;;;;;;10.82;6.68;;;4.10;99.90;;;;;;5075732;28;20040;-91
2023/12/31 04:52:08;;;;;;;9.02;5.88;;;4.20;99.90;;;;;;5077293;28;20021;-92
2023/12/31 04:54:34;;;;;;;10.40;6.90;;;4.20;99.90;;;;;;5076913;28;20085;-91
2023/12/31 04:57:00;;;;;;;8.98;6.00;;;4.20;99.90;;;;;;5073643;28;20056;-91
2023/12/31 04:59:26;;;;;;;7.72;5.97;;;4.30;99.90;;;;;;5069611;28;20074;-91
2023/12/31 05:01:52;;;;;;;8.20;6.47;;;4.20;99.90;;;;;;5076328;28;20020;-90
2023/12/31 05:04:19;;;;;;;11.20;6.97;;;4.30;99.90;;;;;;5075313;28;20033;-91
2023/12/31 05:06:45;;;;;;;9.32;5.57;;;4.30;99.90;;;;;;5067808;28;20112;-91
2023/12/31 05:09:11;;;;;;;8.85;6.13;;;4.30;99.90;;;;;;5073532;28;20028;-91
2023/12/31 05:11:37;;;;;;;9.02;6.00;;;4.30;99.90;;;;;;5057921;28;20020;-92
2023/12/31 05:14:03;;;;;;;7.13;5.97;;;4.30;99.90;;;;;;5058189;28;20063;-92
2023/12/31 05:16:32;;;;;;;8.52;6.10;;;4.30;99.90;;;;;;5078826;28;20459;-92
2023/12/31 05:18:59;;;;;;;7.55;5.75;;;4.30;99.90;;;;;;5069604;28;20024;-91
2023/12/31 05:21:25;;;;;;;7.30;4.82;;;4.30;99.90;;;;;;5057549;28;20505;-91
2023/12/31 05:23:51;;;;;;;7.22;5.00;;;4.30;99.90;;;;;;5057684;28;20029;-92
2023/12/31 05:26:17;;;;;;;7.75;6.18;;;4.20;99.90;;;;;;5076551;28;20043;-91
2023/12/31 05:28:43;;;;;;;6.72;5.15;;;4.30;99.90;;;;;;5075181;28;20020;-92
2023/12/31 05:31:10;;;;;;;6.88;5.15;;;4.30;99.90;;;;;;5073927;28;20036;-91
2023/12/31 05:33:36;;;;;;;7.07;5.03;;;4.30;99.90;;;;;;5075269;28;20027;-91
2023/12/31 05:36:02;;;;;;;5.75;4.15;;;4.30;99.90;;;;;;5074434;28;20215;-90
2023/12/31 05:38:28;;;;;;;6.75;4.95;;;4.20;99.90;;;;;;5065644;28;20016;-91
2023/12/31 05:40:53;;;;;;;8.70;5.35;;;4.20;99.90;;;;;;5075918;28;20060;-91
2023/12/31 05:43:19;;;;;;;7.28;4.82;;;4.20;99.90;;;;;;5077065;28;20020;-91
2023/12/31 05:45:45;;;;;;;5.15;4.40;;;4.10;99.90;;;;;;5078892;28;20032;-91
2023/12/31 05:48:11;;;;;;;6.07;4.35;;;4.10;99.90;;;;;;5061876;28;20074;-91
2023/12/31 05:50:37;;;;;;;7.88;5.22;;;4.00;99.90;;;;;;5078037;28;20044;-91
2023/12/31 05:53:03;;;;;;;5.47;4.28;;;4.10;99.90;;;;;;5079325;28;20024;-91
2023/12/31 05:55:28;;;;;;;6.65;4.13;;;4.10;99.90;;;;;;5078317;28;20054;-92
2023/12/31 05:57:55;;;;;;;7.63;4.55;;;4.10;99.90;;;;;;5065884;28;20063;-91
2023/12/31 06:00:21;;;;;;;4.85;3.55;;;4.10;99.90;;;;;;5059464;28;20116;-91
2023/12/31 06:02:47;;;;;;;6.28;4.43;;;4.10;99.90;;;;;;5080747;28;20031;-91
2023/12/31 06:05:13;;;;;;;7.60;5.03;;;4.10;99.90;;;;;;5085000;28;20414;-91
2023/12/31 06:07:39;;;;;;;4.90;2.88;;;4.10;99.90;;;;;;5074559;28;20032;-91
2023/12/31 06:10:05;;;;;;;5.28;2.95;;;4.10;99.90;;;;;;5080563;28;20082;-91
2023/12/31 06:12:31;;;;;;;4.15;3.40;;;4.10;99.90;;;;;;5075346;28;20016;-91
2023/12/31 06:14:59;;;;;;;5.63;3.85;;;4.00;99.90;;;;;;5078166;28;20114;-91
2023/12/31 06:17:26;;;;;;;6.63;3.80;;;4.00;99.90;;;;;;5084794;28;20028;-91
2023/12/31 06:19:51;;;;;;;5.43;3.28;;;4.00;99.90;;;;;;5078011;28;20021;-91
2023/12/31 06:22:17;;;;;;;4.38;2.92;;;4.00;99.90;;;;;;5077240;28;20024;-90
2023/12/31 06:24:43;;;;;;;4.53;3.05;;;4.00;99.90;;;;;;5086286;28;20039;-91
2023/12/31 06:27:08;;;;;;;4.97;3.53;;;4.10;99.90;;;;;;5084023;28;20087;-91
2023/12/31 06:29:34;;;;;;;5.30;3.97;;;4.10;99.90;;;;;;5075853;28;20025;-90
2023/12/31 06:32:00;;;;;;;5.95;4.32;;;4.10;99.90;;;;;;5083294;28;20018;-92
2023/12/31 06:34:26;;;;;;;4.45;3.45;;;4.10;99.90;;;;;;5076007;28;20032;-91
2023/12/31 06:36:51;;;;;;;6.07;3.28;;;4.10;99.90;;;;;;5083246;28;20034;-92
2023/12/31 06:39:17;;;;;;;6.40;3.95;;;4.20;99.90;;;;;;5075744;28;20016;-91
2023/12/31 06:41:43;;;;;;;5.18;3.92;;;4.30;99.90;;;;;;5081693;28;20037;-91
2023/12/31 06:44:08;;;;;;;5.25;3.95;;;4.30;99.90;;;;;;5098730;28;20424;-91
2023/12/31 06:46:34;;;;;;;4.97;3.60;;;4.40;99.90;;;;;;5084883;28;20089;-91
2023/12/31 06:48:59;;;;;;;5.13;3.80;;;4.40;99.90;;;;;;5080371;28;20028;-91
2023/12/31 06:51:25;;;;;;;5.47;4.57;;;4.50;99.90;;;;;;5079791;28;20078;-91
2023/12/31 06:53:51;;;;;;;7.88;4.18;;;4.60;99.90;;;;;;5080612;28;20025;-92
2023/12/31 06:56:18;;;;;;;6.60;5.85;;;4.80;99.90;;;;;;5073926;28;20051;-92
2023/12/31 06:58:43;;;;;;;6.20;4.40;;;4.90;99.90;;;;;;5071126;28;20020;-90
2023/12/31 07:01:09;;;;;;;5.45;4.22;;;5.00;99.90;;;;;;5077351;28;20032;-91
2023/12/31 07:03:35;;;;;;;6.65;4.45;;;5.00;99.90;;;;;;5080087;28;20517;-91
2023/12/31 07:06:01;;;;;;;6.47;4.40;;;5.10;99.90;;;;;;5074101;28;20037;-91
2023/12/31 07:08:27;;;;;;;5.05;3.88;;;5.00;99.90;;;;;;5077341;28;20020;-91
2023/12/31 07:10:54;;;;;;;4.50;4.05;;;4.90;99.90;;;;;;5077448;28;20060;-92
2023/12/31 07:13:20;;;;;;;5.57;4.68;;;4.80;99.90;;;;;;5072018;28;20077;-91
2023/12/31 07:15:45;;;;;;;5.90;4.22;;;4.70;99.90;;;;;;5059782;28;20441;-92
2023/12/31 07:18:11;;;;;;;5.53;4.68;;;4.70;99.90;;;;;;5059396;28;20028;-92
2023/12/31 07:20:37;;;;;;;5.95;4.97;;;4.70;99.90;;;;;;5074878;28;20024;-91
2023/12/31 07:23:03;;;;;;;5.03;4.07;;;4.60;99.90;;;;;;5059172;28;20734;-92
2023/12/31 07:25:30;;;;;;;6.43;4.28;;;4.60;99.90;;;;;;5074871;28;20085;-90
2023/12/31 07:27:56;;;;;;;6.05;4.55;;;4.60;99.90;;;;;;5075321;28;20554;-91
2023/12/31 07:30:22;;;;;;;6.00;3.55;;;4.60;99.90;;;;;;5077273;28;20036;-94
2023/12/31 07:32:48;;;;;;;7.00;3.25;;;4.60;99.90;;;;;;5068681;28;20036;-93
2023/12/31 07:35:14;;;;;;;6.43;4.05;;;4.60;99.90;;;;;;5090075;28;20021;-94
2023/12/31 07:37:40;;;;;;;7.00;4.28;;;4.60;99.90;;;;;;5076557;28;20024;-94
2023/12/31 07:40:10;;;;;;;5.15;3.53;;;4.50;99.90;;;;;;5092097;28;20082;-93
2023/12/31 07:42:39;;;;;;;6.40;4.72;;;4.50;99.90;;;;;;5063085;28;20028;-96
2023/12/31 07:45:12;;;;;;;6.15;5.45;;;4.50;99.90;;;;;;5077038;28;20111;-93
2023/12/31 07:47:39;;;;;;;6.53;4.13;;;4.50;99.90;;;;;;5084068;28;20048;-96
2023/12/31 07:50:08;;;;;;;7.15;4.35;;;4.50;99.90;;;;;;5071418;28;20024;-93
2023/12/31 07:52:34;;;;;;;6.90;5.28;;;4.50;99.90;;;;;;5086685;28;20035;-94
2023/12/31 07:55:02;;;;;;;6.05;5.25;;;4.60;99.90;;;;;;5065550;28;20020;-94
2023/12/31 07:57:31;;;;;;;8.43;5.60;;;4.60;99.90;;;;;;5073765;28;20230;-96
2023/12/31 07:59:56;;;;;;;5.30;4.43;;;4.60;99.90;;;;;;5067216;28;20024;-94
2023/12/31 08:02:25;;;;;;;6.88;4.10;;;4.60;99.90;;;;;;5092490;28;20039;-94
2023/12/31 08:04:51;;;;;;;6.90;5.18;;;4.60;99.90;;;;;;5087235;28;20028;-93
2023/12/31 08:07:18;;;;;;;6.68;4.25;;;4.70;99.90;;;;;;5066988;28;20030;-95
2023/12/31 08:09:44;;;;;;;9.55;5.13;;;4.70;99.90;;;;;;5072322;28;20024;-94
2023/12/31 08:12:10;;;;;;;5.38;4.45;;;4.70;99.90;;;;;;5069703;28;20028;-94
2023/12/31 08:14:36;;;;;;;7.32;4.43;;;4.70;99.90;;;;;;5078332;28;20194;-93
2023/12/31 08:17:02;;;;;;;6.78;4.72;;;4.60;99.90;;;;;;5063264;28;20063;-94
2023/12/31 08:19:28;;;;;;;8.68;4.15;;;4.70;99.90;;;;;;5059751;28;20030;-94
2023/12/31 08:21:53;;;;;;;9.30;6.47;;;4.60;99.90;;;;;;5062760;28;20454;-94
2023/12/31 08:24:21;;;;;;;7.65;4.45;;;4.60;99.90;;;;;;5094365;28;20028;-94
2023/12/31 08:26:50;;;;;;;6.22;4.10;;;4.60;99.90;;;;;;5088601;28;20032;-95
2023/12/31 08:29:16;;;;;;;8.18;4.28;;;4.60;99.90;;;;;;5095133;28;20088;-95
2023/12/31 08:31:47;;;;;;;6.70;4.45;;;4.70;99.90;;;;;;5092179;28;20028;-94
2023/12/31 08:34:13;;;;;;;6.30;4.13;;;4.70;99.90;;;;;;5063982;28;20044;-94
2023/12/31 08:36:46;;;;;;;6.65;4.38;;;4.80;99.90;;;;;;5074833;28;20039;-94
2023/12/31 08:42:14;;;;;;;7.32;4.90;;;4.90;99.90;;;;;;5090693;28;20054;-91
2023/12/31 08:44:40;;;;;;;6.43;5.07;;;5.00;99.90;;;;;;5096184;28;20572;-91
2023/12/31 08:47:06;;;;;;;5.25;4.13;;;5.10;99.90;;;;;;5094358;28;20013;-94
2023/12/31 08:49:31;;;;;;;5.95;4.90;;;5.20;99.90;;;;;;5056196;28;20561;-92
2023/12/31 08:51:57;;;;;;;6.70;4.75;;;5.20;99.90;;;;;;5073112;28;20079;-92
2023/12/31 08:54:22;;;;;;;7.93;5.18;;;5.30;99.90;;;;;;5054699;28;20530;-93
2023/12/31 08:56:48;;;;;;;11.32;6.75;;;5.30;99.90;;;;;;5057693;28;20023;-91
2023/12/31 08:59:14;;;;;;;11.98;7.97;;;5.30;99.90;;;;;;5075427;28;20430;-92
2023/12/31 09:01:39;;;;;;;8.68;5.75;;;5.40;99.90;;;;;;5076801;28;20016;-91
2023/12/31 09:04:06;;;;;;;11.00;7.13;;;5.50;99.90;;;;;;5058164;28;20376;-91
2023/12/31 09:06:32;;;;;;;9.90;6.50;;;5.50;99.90;;;;;;5083288;28;20042;-91
2023/12/31 09:08:58;;;;;;;13.80;8.77;;;5.70;99.90;;;;;;5071989;28;20104;-92
2023/12/31 09:11:24;;;;;;;15.00;10.68;;;5.70;99.90;;;;;;5064185;28;20427;-92
2023/12/31 09:13:49;;;;;;;9.57;7.45;;;5.80;99.90;;;;;;5069882;28;20783;-92
2023/12/31 09:16:15;;;;;;;11.20;6.85;;;5.90;99.90;;;;;;5054687;28;20372;-91
2023/12/31 09:18:41;;;;;;;10.00;7.13;;;6.00;99.90;;;;;;5056643;28;20469;-92
2023/12/31 09:21:07;;;;;;;9.60;7.00;;;5.90;99.90;;;;;;5056249;28;20031;-92
2023/12/31 09:23:32;;;;;;;9.98;6.30;;;6.00;99.90;;;;;;5071616;28;20028;-93
2023/12/31 09:25:58;;;;;;;12.88;9.00;;;6.00;99.90;;;;;;5069464;28;20028;-92
2023/12/31 09:28:24;;;;;;;10.48;7.45;;;6.10;99.90;;;;;;5068434;28;20028;-92
2023/12/31 09:30:50;;;;;;;11.88;8.02;;;6.00;99.90;;;;;;5066588;28;20028;-90
2023/12/31 09:33:15;;;;;;;19.65;12.82;;;6.10;99.90;;;;;;5065451;28;20031;-92
2023/12/31 09:35:41;;;;;;;19.20;11.30;;;6.20;99.90;;;;;;5068524;28;20025;-92
2023/12/31 09:38:07;;;;;;;15.50;11.15;;;6.20;99.90;;;;;;5049364;28;20493;-92
2023/12/31 09:40:33;;;;;;;17.50;11.65;;;6.30;99.90;;;;;;5064658;28;20033;-92
2023/12/31 09:43:01;;;;;;;11.63;9.07;;;6.40;99.90;;;;;;5070137;28;20051;-93
2023/12/31 09:45:28;;;;;;;10.90;7.13;;;6.40;99.90;;;;;;5057645;28;20035;-93
2023/12/31 09:47:56;;;;;;;8.32;6.45;;;6.50;99.90;;;;;;5056345;28;20054;-93
2023/12/31 09:50:22;;;;;;;8.77;7.30;;;6.50;99.90;;;;;;5074319;28;20024;-92
2023/12/31 09:52:49;;;;;;;9.45;6.18;;;6.50;99.90;;;;;;5074037;28;20479;-93
2023/12/31 09:55:19;;;;;;;7.72;6.53;;;6.50;99.90;;;;;;5074579;28;20100;-93
2023/12/31 09:57:48;;;;;;;7.05;5.70;;;6.50;99.90;;;;;;5071858;28;20024;-94
2023/12/31 10:00:17;;;;;;;6.85;6.15;;;6.50;99.90;;;;;;5075450;28;20483;-92
2023/12/31 10:02:46;;;;;;;7.53;5.75;;;6.50;99.90;;;;;;5075005;28;20064;-93
2023/12/31 10:05:12;;;;;;;6.82;4.50;;;6.50;99.90;;;;;;5067649;28;20028;-92
2023/12/31 10:07:38;;;;;;;6.63;5.15;;;6.50;99.90;;;;;;5075952;28;20032;-91
2023/12/31 10:10:05;;;;;;;6.30;4.30;;;6.60;99.90;;;;;;5059369;28;20043;-91
2023/12/31 10:12:32;;;;;;;5.53;4.30;;;6.60;99.90;;;;;;5075577;28;20013;-93
2023/12/31 10:14:58;;;;;;;6.22;4.28;;;6.60;99.90;;;;;;5077550;28;20025;-94
2023/12/31 10:17:26;;;;;;;5.78;3.80;;;6.70;99.90;;;;;;5056322;28;20024;-93
2023/12/31 10:19:51;;;;;;;5.72;3.85;;;6.70;99.90;;;;;;5062514;28;20013;-93
2023/12/31 10:22:17;;;;;;;5.15;4.07;;;6.70;99.90;;;;;;5060587;28;20096;-92
2023/12/31 10:24:42;;;;;;;7.20;5.25;;;6.70;99.90;;;;;;5069527;28;20029;-91
2023/12/31 10:27:11;;;;;;;9.20;4.97;;;6.70;99.90;;;;;;5076618;28;20111;-92
2023/12/31 10:29:37;;;;;;;6.05;4.82;;;6.70;99.90;;;;;;5076255;28;20039;-91
2023/12/31 10:32:03;;;;;;;7.68;4.82;;;6.70;99.90;;;;;;5057739;28;20604;-91
2023/12/31 10:34:29;;;;;;;8.57;7.47;;;6.70;99.90;;;;;;5068563;28;20469;-90
2023/12/31 10:37:05;;;;;;;7.85;5.55;;;6.70;99.90;;;;;;5077726;28;20029;-92
2023/12/31 10:39:38;;;;;;;8.55;4.80;;;6.70;99.90;;;;;;5044339;28;20116;-92
2023/12/31 10:42:06;;;;;;;11.75;6.75;;;6.70;99.90;;;;;;5083030;28;20455;-92
2023/12/31 10:44:36;;;;;;;9.50;6.70;;;6.70;99.90;;;;;;5082753;28;20029;-92
2023/12/31 10:47:11;;;;;;;9.32;6.00;;;6.70;99.90;;;;;;5064702;28;20023;-92
2023/12/31 10:49:43;;;;;;;8.48;6.72;;;6.80;99.90;;;;;;5062841;28;20059;-93
2023/12/31 10:52:14;;;;;;;10.63;7.28;;;6.90;99.90;;;;;;5079741;28;20572;-91
2023/12/31 10:54:46;;;;;;;9.73;6.38;;;7.00;99.90;;;;;;5064059;28;20051;-93
2023/12/31 10:57:14;;;;;;;6.72;5.75;;;7.10;99.90;;;;;;5083114;28;20103;-93
2023/12/31 10:59:44;;;;;;;9.07;7.15;;;7.10;99.90;;;;;;5063831;28;20115;-93
2023/12/31 11:02:20;;;;;;;9.13;5.38;;;7.10;99.90;;;;;;5081764;28;20024;-92
2023/12/31 11:04:48;;;;;;;10.77;7.68;;;7.20;99.90;;;;;;5081049;28;20016;-93
2023/12/31 11:07:20;;;;;;;8.95;4.95;;;7.20;99.90;;;;;;5061248;28;20021;-91
2023/12/31 11:09:46;;;;;;;6.70;4.88;;;7.20;99.90;;;;;;5080843;28;20170;-92
2023/12/31 11:12:16;;;;;;;8.23;5.60;;;7.30;99.90;;;;;;5062677;28;20016;-92
2023/12/31 11:14:48;;;;;;;7.78;5.32;;;7.30;99.90;;;;;;5068722;28;20025;-91
2023/12/31 11:17:29;;;;;;;6.95;4.60;;;7.40;99.90;;;;;;5078826;28;20043;-92
2023/12/31 11:20:23;;;;;;;4.75;3.65;;;7.40;99.90;;;;;;5081336;28;20082;-92
2023/12/31 11:23:01;;;;;;;4.35;2.95;;;7.50;99.90;;;;;;5081778;28;20021;-91
2023/12/31 11:25:27;;;;;;;3.75;2.45;;;7.60;99.90;;;;;;5082078;28;20490;-92
2023/12/31 11:27:55;;;;;;;4.80;4.38;;;7.60;99.90;;;;;;5082554;28;20040;-91
2023/12/31 11:30:50;;;;;;;5.22;3.10;;;7.70;99.90;;;;;;5068936;28;20025;-92
2023/12/31 11:33:24;;;;;;;8.13;3.83;;;7.60;99.90;;;;;;5081412;28;20552;-93
2023/12/31 11:35:52;;;;;;;4.63;2.72;;;7.70;99.90;;;;;;5081888;28;20031;-92
2023/12/31 11:38:21;;;;;;;3.03;2.03;;;7.70;99.90;;;;;;5081638;28;20051;-93
2023/12/31 11:40:48;;;;;;;3.88;1.92;;;7.80;99.90;;;;;;5063316;28;20032;-93
2023/12/31 11:43:16;;;;;;;2.63;2.38;;;7.80;99.90;;;;;;5082528;28;20016;-92
2023/12/31 11:45:43;;;;;;;;;;;7.80;99.90;;;;;;5079436;28;20041;-93
2023/12/31 11:48:24;;;;;;;5.13;2.97;;;7.80;99.90;;;;;;5063963;28;19989;-93
2023/12/31 11:51:03;;;;;;;5.82;2.67;;;7.80;99.90;;;;;;5065501;28;20025;-92
2023/12/31 11:53:48;;;;;;;5.22;2.97;;;7.80;99.90;;;;;;5081596;28;20021;-92
2023/12/31 11:56:13;;;;;;;5.35;3.72;;;7.70;99.90;;;;;;5079495;28;20025;-92
2023/12/31 11:58:42;;;;;;;6.20;3.20;;;7.70;99.90;;;;;;5082416;28;20051;-93
2023/12/31 12:01:09;;;;;;;6.00;4.13;;;7.70;99.90;;;;;;5061129;28;20116;-94
2023/12/31 12:03:34;;;;;;;4.53;4.13;;;7.60;99.90;;;;;;5081316;28;20024;-91
2023/12/31 12:06:00;;;;;;;3.13;2.65;;;7.60;99.90;;;;;;5078662;28;20110;-94
2023/12/31 12:08:26;;;;;;;4.72;2.40;;;7.60;99.90;;;;;;5063542;28;20024;-92
2023/12/31 12:10:52;;;;;;;5.72;3.42;;;7.70;99.90;;;;;;5082691;28;20441;-93
2023/12/31 12:13:18;;;;;;;4.07;2.50;;;7.70;99.90;;;;;;5082521;28;20120;-93
2023/12/31 12:15:43;;;;;;;4.55;2.45;;;7.70;99.90;;;;;;5080915;28;20538;-93
2023/12/31 12:18:24;;;;;;;5.20;3.08;;;7.70;99.90;;;;;;5063808;28;20032;-91
2023/12/31 12:20:50;;;;;;;6.63;2.97;;;7.70;99.90;;;;;;5081954;28;20028;-92
2023/12/31 12:23:20;;;;;;;3.45;2.50;;;7.70;99.90;;;;;;5053638;28;20032;-93
2023/12/31 12:25:50;;;;;;;4.60;2.85;;;7.80;99.90;;;;;;5081452;28;20054;-92
2023/12/31 12:28:16;;;;;;;2.45;2.17;;;7.80;99.90;;;;;;5080295;28;20107;-92
2023/12/31 12:30:42;;;;;;;2.85;1.73;;;7.70;99.90;;;;;;5079458;28;20024;-91
2023/12/31 12:33:08;;;;;;;2.60;1.95;;;7.70;99.90;;;;;;5079951;28;20243;-93
2023/12/31 12:35:38;;;;;;;1.95;1.70;;;7.70;99.90;;;;;;5079568;28;20025;-91
2023/12/31 12:38:05;;;;;;;4.32;4.03;;;7.70;99.90;;;;;;5062799;28;20054;-92
2023/12/31 12:40:31;;;;;;;3.65;3.35;;;7.70;99.90;;;;;;5080718;28;20130;-93
2023/12/31 12:42:59;;;;;;;2.78;2.08;;;7.70;99.90;;;;;;5081456;28;20491;-90
2023/12/31 12:45:24;;;;;;;2.05;1.38;;;7.70;99.90;;;;;;5081473;28;20024;-91
2023/12/31 12:47:50;;;;;;;2.15;1.70;;;7.70;99.90;;;;;;5083314;28;20051;-90
2023/12/31 12:50:16;;;;;;;1.92;1.73;;;7.70;99.90;;;;;;5067973;28;20029;-93
2023/12/31 12:52:41;;;;;;;4.25;2.17;;;7.70;99.90;;;;;;5081872;28;20021;-92
2023/12/31 12:55:07;;;;;;;2.22;1.52;;;7.80;99.90;;;;;;5073666;28;20020;-92